Newbury, United Kingdom
Current Conditions -  °F | °C
As of 1:50 PM on Monday 24 Nov 2014 (Local Time) from EGUB Reporting Station
Clear Clear  
Wind Chill: 40°   Ceiling: Unl
Heat Index: 43°   Visibility: 6mi
Dew Point: 39°   Wind: 5mph
Humidity: 87%   Direction: 320°NW
Pressure: 30.33"   Gusts: NA
Location:  51.4°N, 1.32°W
Report Text: EGUB 241350Z 32004KT CAVOK 06/04 Q1027 BLU NOSIG
Loading
Personal Weather Stations






























Interactive Weather Map New forecast layout! Learn more

10-Day Weather Forecast

Advertisements
Track Severe Weather on mobile